Map

Track Data

SID SEASON NUMBER BASIN SUBBASIN NAME ISO_TIME NATURE LAT LON WMO_WIND WMO_PRES WMO_AGENCY TRACK_TYPE DIST2LAND LANDFALL IFLAG USA_AGENCY USA_ATCF_ID USA_LAT USA_LON USA_RECORD USA_STATUS USA_WIND USA_PRES USA_SSHS USA_R34_NE USA_R34_SE USA_R34_SW USA_R34_NW USA_R50_NE USA_R50_SE USA_R50_SW USA_R50_NW USA_R64_NE USA_R64_SE USA_R64_SW USA_R64_NW USA_POCI USA_ROCI USA_RMW USA_EYE TOKYO_LAT TOKYO_LON TOKYO_GRADE TOKYO_WIND TOKYO_PRES TOKYO_R50_DIR TOKYO_R50_LONG TOKYO_R50_SHORT TOKYO_R30_DIR TOKYO_R30_LONG TOKYO_R30_SHORT TOKYO_LAND CMA_LAT CMA_LON CMA_CAT CMA_WIND CMA_PRES HKO_LAT HKO_LON HKO_CAT HKO_WIND HKO_PRES NEWDELHI_LAT NEWDELHI_LON NEWDELHI_GRADE NEWDELHI_WIND NEWDELHI_PRES NEWDELHI_CI NEWDELHI_DP NEWDELHI_POCI REUNION_LAT REUNION_LON REUNION_TYPE REUNION_WIND REUNION_PRES REUNION_TNUM REUNION_CI REUNION_RMW REUNION_R34_NE REUNION_R34_SE REUNION_R34_SW REUNION_R34_NW REUNION_R50_NE REUNION_R50_SE REUNION_R50_SW REUNION_R50_NW REUNION_R64_NE REUNION_R64_SE REUNION_R64_SW REUNION_R64_NW BOM_LAT BOM_LON BOM_TYPE BOM_WIND BOM_PRES BOM_TNUM BOM_CI BOM_RMW BOM_R34_NE BOM_R34_SE BOM_R34_SW BOM_R34_NW BOM_R50_NE BOM_R50_SE BOM_R50_SW BOM_R50_NW BOM_R64_NE BOM_R64_SE BOM_R64_SW BOM_R64_NW BOM_ROCI BOM_POCI BOM_EYE BOM_POS_METHOD BOM_PRES_METHOD NADI_LAT NADI_LON NADI_CAT NADI_WIND NADI_PRES WELLINGTON_LAT WELLINGTON_LON WELLINGTON_WIND WELLINGTON_PRES DS824_LAT DS824_LON DS824_STAGE DS824_WIND DS824_PRES TD9636_LAT TD9636_LON TD9636_STAGE TD9636_WIND TD9636_PRES TD9635_LAT TD9635_LON TD9635_WIND TD9635_PRES TD9635_ROCI NEUMANN_LAT NEUMANN_LON NEUMANN_CLASS NEUMANN_WIND NEUMANN_PRES MLC_LAT MLC_LON MLC_CLASS MLC_WIND MLC_PRES USA_GUST BOM_GUST BOM_GUST_PER REUNION_GUST REUNION_GUST_PER USA_SEAHGT USA_SEARAD_NE USA_SEARAD_SE USA_SEARAD_SW USA_SEARAD_NW STORM_SPEED STORM_DIR
1980254N14112 1980 75 WP MM RUTH 1980-09-10 00:00:00 TS 13.5000 112.000 main 279 279 __O___________ -1 13.5000 112.000 0 19 1002 7 41
1980254N14112 1980 75 WP MM RUTH 1980-09-10 03:00:00 TS 13.7550 112.230 main 309 309 __P___________ -1 13.7550 112.230 0 19 1001 7 44
1980254N14112 1980 75 WP MM RUTH 1980-09-10 06:00:00 TS 14.0000 112.500 main 345 345 __O___________ -1 14.0000 112.500 0 19 1000 8 50
1980254N14112 1980 75 WP MM RUTH 1980-09-10 09:00:00 TS 14.2351 112.822 main 379 379 __P___________ -1 14.2351 112.822 0 19 1000 8 49
1980254N14112 1980 75 WP MM RUTH 1980-09-10 12:00:00 TS 14.5000 113.100 main 415 415 __O___________ -1 14.5000 113.100 0 19 1000 7 36
1980254N14112 1980 75 WP MM RUTH 1980-09-10 15:00:00 TS 14.8274 113.267 main 442 442 __P___________ -1 14.8274 113.267 0 19 1000 7 15
1980254N14112 1980 75 WP MM RUTH 1980-09-10 18:00:00 TS 15.2000 113.300 main 454 447 __O___________ -1 15.2000 113.300 0 19 1000 8 352
1980254N14112 1980 75 WP MM RUTH 1980-09-10 21:00:00 TS 15.6226 113.150 main 451 409 __P___________ -1 15.6226 113.150 0 19 1000 9 340
1980254N14112 1980 75 WP MM RUTH 1980-09-11 00:00:00 TS 16.0000 113.000 main 409 392 __O___________ -1 16.0000 113.000 0 19 1000 6 354
1980254N14112 1980 75 WP MM RUTH 1980-09-11 03:00:00 TS 16.2300 113.092 main 400 392 __P___________ -1 16.2300 113.092 0 19 1000 4 26
1980254N14112 1980 75 WP MM RUTH 1980-09-11 06:00:00 TS 16.4000 113.200 main 392 369 __O___________ -1 16.4000 113.200 0 19 1000 4 5
1980254N14112 1980 75 WP MM RUTH 1980-09-11 09:00:00 TS 16.6000 113.123 main 369 346 __P___________ -1 16.6000 113.123 0 19 1000 4 335
1980254N14112 1980 75 WP MM RUTH 1980-09-11 12:00:00 TS 16.8000 113.000 main 346 324 __O___________ -1 16.8000 113.000 0 19 1000 5 336
1980254N14112 1980 75 WP MM RUTH 1980-09-11 15:00:00 TS 17.0075 112.928 main 324 310 __P___________ -1 17.0075 112.928 0 19 1000 4 347
1980254N14112 1980 75 WP MM RUTH 1980-09-11 18:00:00 TS 17.2000 112.900 main 310 304 __O___________ -1 17.2000 112.900 0 19 1000 3 358
1980254N14112 1980 75 WP MM RUTH 1980-09-11 21:00:00 TS 17.3500 112.928 main 304 298 __P___________ -1 17.3500 112.928 0 24 999 3 17
1980254N14112 1980 75 WP MM RUTH 1980-09-12 00:00:00 TS 17.5000 113.000 main 301 291 __O___________ -1 17.5000 113.000 1 29 998 4 19
1980254N14112 1980 75 WP MM RUTH 1980-09-12 03:00:00 TS 17.6774 113.055 main 300 300 __P___________ -1 17.6774 113.055 1 29 998 9 44
1980254N14112 1980 75 WP MM RUTH 1980-09-12 06:00:00 TS 18.1200 113.620 1002 tokyo main 320 320 _OO___________ -1 19.0000 115.300 2 1002 0 0 0 17.9000 113.200 1 29 998 12 51
1980254N14112 1980 75 WP MM RUTH 1980-09-12 09:00:00 TS 18.4568 114.069 main 348 348 _PP___________ -1 19.0000 115.138 2 1000 0 0 18.1852 113.535 1 29 997 10 50
1980254N14112 1980 75 WP MM RUTH 1980-09-12 12:00:00 TS 18.7500 114.413 998 tokyo main 368 368 _OOO__________ -1 19.0000 115.000 2 998 0 0 0 18.5000 113.900 1 29 996 19.0000 114.700 TD 25 995 7 42
1980254N14112 1980 75 WP MM RUTH 1980-09-12 15:00:00 TS 18.9465 114.535 main 370 360 _PPP__________ -1 19.0000 114.900 2 998 0 0 18.8674 114.137 1 29 996 18.9975 114.603 TD 27 994 3 22
1980254N14112 1980 75 WP MM RUTH 1980-09-12 18:00:00 TS 19.0364 114.536 998 tokyo main 360 360 _OOO__________ -1 19.0000 114.800 2 998 0 0 0 19.1000 114.300 1 29 996 19.0000 114.500 TD 30 994 1 323
1980254N14112 1980 75 WP MM RUTH 1980-09-12 21:00:00 TS 19.0008 114.501 main 360 351 _PPP__________ -1 19.0000 114.650 2 998 0 0 18.9950 114.460 1 29 996 19.0075 114.393 TD 30 993 2 247
1980254N14112 1980 75 WP MM RUTH 1980-09-13 00:00:00 TS 18.9467 114.307 998 tokyo main 355 344 OOOO_____OO___ jtwc_wp WP181980 19.0000 113.800 30 -1 19.0000 114.500 2 998 0 0 0 18.8000 114.500 1 29 996 19.0000 114.300 TD 30 993 19.0000 113.800 TC 30 19.0000 113.800 1 30 4 249
1980254N14112 1980 75 WP MM RUTH 1980-09-13 03:00:00 TS 18.8759 114.153 main 344 327 PPPP_____PP___ WP181980 18.7925 113.805 30 -1 19.0000 114.400 2 998 0 0 18.7851 114.338 1 29 996 18.9650 114.243 TD 30 992 18.7925 113.805 TC 30 18.7985 113.805 1 30 3 236
1980254N14112 1980 75 WP MM RUTH 1980-09-13 06:00:00 TS 18.7725 114.028 998 tokyo main 327 320 OOOO_____OP___ jtwc_wp WP181980 18.6000 113.800 30 -1 19.0000 114.300 2 998 0 0 0 18.8000 114.100 1 29 996 18.9000 114.200 TD 30 992 18.6000 113.800 TC 30 18.6075 113.798 1 30 3 223
1980254N14112 1980 75 WP MM RUTH 1980-09-13 09:00:00 TS 18.6467 113.928 main 324 314 PPPP_____PP___ WP181980 18.4350 113.773 30 -1 19.0000 114.173 2 998 0 0 18.7500 113.920 1 29 996 18.8225 114.165 TD 30 992 18.4350 113.773 TC 30 18.4378 113.767 1 30 3 220
1980254N14112 1980 75 WP MM RUTH 1980-09-13 12:00:00 TS 18.5500 113.833 998 tokyo main 314 309 OOOO_____OO___ jtwc_wp WP181980 18.3000 113.700 30 -1 19.0000 114.000 2 998 0 0 0 18.7000 113.800 1 29 996 18.7000 114.100 TD 30 992 18.3000 113.700 TC 30 18.3000 113.700 1 30 3 226
1980254N14112 1980 75 WP MM RUTH 1980-09-13 15:00:00 TS 18.4537 113.714 main 309 304 PPPP_____PP___ WP181980 18.1625 113.572 32 -1 19.0000 113.765 2 996 0 0 18.7075 113.808 1 33 994 18.4850 113.980 TD 32 991 18.1625 113.572 TC 32 18.2049 113.588 1 32 3 239
1980254N14112 1980 75 WP MM RUTH 1980-09-13 18:00:00 TS 18.3941 113.555 994 tokyo main 304 285 OOOO_____OP___ jtwc_wp WP181980 18.1000 113.400 35 0 19.0000 113.500 2 994 0 0 0 18.7000 113.800 2 38 993 18.3000 113.800 TS 35 990 18.1000 113.400 TC 35 18.1649 113.432 1 35 3 259
1980254N14112 1980 75 WP MM RUTH 1980-09-13 21:00:00 TS 18.3854 113.359 main 285 258 PPPP_____PP___ WP181980 18.1475 113.215 37 0 18.9925 113.250 2 992 0 0 18.5849 113.660 2 38 991 18.2474 113.580 TS 35 990 18.1475 113.215 TC 37 18.1924 113.235 1 37 4 278
1980254N14112 1980 75 WP MM RUTH 1980-09-14 00:00:00 TS 18.4500 113.117 40 990 tokyo main 252 228 OOOO_____OO___ jtwc_wp WP181980 18.3000 113.000 40 0 19.0000 113.000 3 40 990 0 9 120 120 0 18.5000 113.400 2 38 990 18.3000 113.300 TS 35 990 18.3000 113.000 TC 40 18.3000 113.000 2 40 5 293
1980254N14112 1980 75 WP MM RUTH 1980-09-14 03:00:00 TS 18.5964 112.839 main 219 181 PPPP_____PP___ WP181980 18.5199 112.772 40 0 19.0425 112.750 3 40 990 0 9 120 120 18.5552 113.008 2 43 987 18.4125 112.965 TS 35 990 18.5199 112.772 TC 40 18.5282 112.765 2 40 7 303
1980254N14112 1980 75 WP MM RUTH 1980-09-14 06:00:00 TS 18.8045 112.532 40 990 tokyo main 181 152 OOOO_____OP___ jtwc_wp WP181980 18.8000 112.500 40 0 19.1000 112.500 3 40 990 0 9 120 120 0 18.7000 112.600 3 48 985 18.6000 112.600 TS 35 990 18.8000 112.500 TC 40 18.8270 112.491 2 40 7 309
1980254N14112 1980 75 WP MM RUTH 1980-09-14 09:00:00 TS 19.0419 112.249 main 142 100 PPPP_____PP___ WP181980 19.1224 112.188 40 0 19.1348 112.287 3 40 990 0 9 120 120 18.8920 112.380 3 53 982 18.8422 112.280 TS 37 987 19.1224 112.188 TC 40 19.1374 112.171 2 40 8 308
1980254N14112 1980 75 WP MM RUTH 1980-09-14 12:00:00 TS 19.2667 111.900 40 990 tokyo main 100 47 OOOO_____OO___ jtwc_wp WP181980 19.4000 111.800 40 0 19.2000 112.000 3 40 990 0 9 120 120 0 19.1000 112.100 3 58 980 19.1000 111.900 TS 40 985 19.4000 111.800 TC 40 19.4000 111.800 2 40 9 296
1980254N14112 1980 75 WP MM RUTH 1980-09-14 15:00:00 TS 19.4262 111.410 main 47 0 PPPP_____PP___ WP181980 19.5376 111.315 42 0 19.3426 111.538 3 40 990 0 9 120 120 19.2653 111.545 3 58 979 19.3377 111.365 TS 42 985 19.5376 111.315 TC 42 19.5366 111.383 2 38 10 286
1980254N14112 1980 75 WP MM RUTH 1980-09-14 18:00:00 TS 19.5362 110.869 40 990 tokyo main 0 0 OOOO_____OP___ jtwc_wp WP181980 19.6000 110.800 45 0 19.5000 111.000 3 40 990 0 9 120 120 0 19.4000 110.900 3 58 979 19.5000 110.800 TS 45 985 19.6000 110.800 TC 45 19.6175 110.917 2 37 10 280
1980254N14112 1980 75 WP MM RUTH 1980-09-14 21:00:00 TS 19.6052 110.380 main 0 0 PPPP_____PP___ WP181980 19.6573 110.350 40 0 19.6147 110.515 3 37 991 0 9 90 90 19.5075 110.312 3 53 982 19.5298 110.335 TS 45 985 19.6573 110.350 TC 40 19.6646 110.417 2 36 9 277
1980254N14112 1980 75 WP MM RUTH 1980-09-15 00:00:00 TS 19.6500 109.900 35 992 tokyo main 0 0 OOOO_____OO___ jtwc_wp WP181980 19.7000 109.900 35 0 19.7000 110.000 3 35 992 0 9 60 60 0 19.6000 109.800 3 48 985 19.5000 109.900 TS 45 985 19.7000 109.900 TC 35 19.7000 109.900 2 35 9 276
1980254N14112 1980 75 WP MM RUTH 1980-09-15 03:00:00 TS 19.7044 109.422 main 0 0 PPPP_____PP___ WP181980 19.7499 109.415 40 0 19.7501 109.400 3 40 991 0 9 60 60 19.7070 109.457 3 48 985 19.4924 109.450 TS 47 982 19.7499 109.415 TC 40 19.7771 109.398 2 41 9 277
1980254N14112 1980 75 WP MM RUTH 1980-09-15 06:00:00 TS 19.7574 108.930 45 990 tokyo main 30 30 OOOO_____OP___ jtwc_wp WP181980 19.8000 108.900 45 0 19.8000 108.800 3 45 990 0 9 60 60 0 19.8000 109.100 3 48 985 19.5000 109.000 STS 50 980 19.8000 108.900 TC 45 19.8444 108.880 2 47 10 277
1980254N14112 1980 75 WP MM RUTH 1980-09-15 09:00:00 TS 19.8198 108.411 main 54 54 PPPP_____PP___ WP181980 19.8649 108.358 52 0 19.8922 108.292 3 47 987 0 9 65 65 19.8499 108.560 3 53 982 19.5574 108.550 STS 55 977 19.8649 108.358 TC 52 19.8895 108.348 2 53 10 276
1980254N14112 1980 75 WP MM RUTH 1980-09-15 12:00:00 TS 19.8667 107.867 50 985 tokyo main 99 85 OOOO_____OO___ jtwc_wp WP181980 19.9000 107.800 60 0 20.0000 107.800 4 50 985 0 9 70 70 0 19.9000 107.900 3 58 980 19.6000 108.100 STS 60 975 19.9000 107.800 TC 60 19.9000 107.800 2 60 10 274
1980254N14112 1980 75 WP MM RUTH 1980-09-15 15:00:00 TS 19.9001 107.307 main 85 45 PPPP_____PP___ WP181980 19.8723 107.257 62 0 20.1598 107.266 4 52 982 0 9 85 85 20.0454 107.136 3 58 980 19.5645 107.695 STS 67 972 19.8723 107.257 TC 62 19.8866 107.233 2 58 11 270
1980254N14112 1980 75 WP MM RUTH 1980-09-15 18:00:00 TS 19.8725 106.726 55 980 tokyo main 39 22 OOOO_____OP___ jtwc_wp WP181980 19.8000 106.700 65 1 20.2000 106.700 4 55 980 9 40 40 9 100 100 0 20.1000 106.400 3 58 980 19.5000 107.200 T 75 970 19.8000 106.700 TC 65 19.8350 106.654 2 57 11 262
1980254N14112 1980 75 WP MM RUTH 1980-09-15 21:00:00 TS 19.7534 106.125 main 20 0 PPPP_____PP___ WP181980 19.7224 106.100 60 0 19.9596 106.130 4 55 982 9 35 30 9 110 80 19.9020 105.862 3 58 982 19.4728 106.488 T 75 970 19.7224 106.100 TC 60 19.7409 106.072 2 56 12 255
1980254N14112 1980 75 WP MM RUTH 1980-09-16 00:00:00 TS 19.5619 105.519 55 985 tokyo main 0 0 OOOO_____OO___ jtwc_wp WP181980 19.6000 105.500 55 0 19.6000 105.500 4 55 985 2 30 20 2 120 60 0 19.6000 105.400 3 58 985 19.4000 105.700 T 75 970 19.6000 105.500 TC 55 19.6000 105.500 2 55 12 249
1980254N14112 1980 75 WP MM RUTH 1980-09-16 03:00:00 TS 19.3257 104.917 main 0 0 PPPP_____PP___ WP181980 19.4177 104.937 42 0 19.2554 104.734 4 990 2 2 19.3566 104.968 3 48 992 19.2294 105.015 T 65 975 19.4177 104.937 TC 42 19.4131 104.945 2 42 13 248
1980254N14112 1980 75 WP MM RUTH 1980-09-16 06:00:00 TS 19.0692 104.254 996 tokyo main 0 0 OOOO_____OO___ jtwc_wp WP181980 19.2000 104.400 30 -1 19.0000 104.000 2 996 0 0 0 19.1000 104.400 2 38 1000 19.0000 104.300 STS 55 980 19.2000 104.400 TC 30 19.2000 104.400 6 30 14 252
1980254N14112 1980 75 WP MM RUTH 1980-09-16 09:00:00 TS 18.9057 103.525 main 0 0 _PPP__________ WP181980 -1 19.0287 103.539 2 1000 0 0 18.8117 103.539 2 33 1002 18.7536 103.482 STS 40 987 TC 6 13 260
1980254N14112 1980 75 WP MM RUTH 1980-09-16 12:00:00 TS 18.8333 102.850 1004 tokyo main 0 0 _OOO__________ -1 19.0000 103.000 2 1004 0 0 0 18.5000 102.500 1 29 1004 18.5000 102.600 TD 25 995 15 255
1980254N14112 1980 75 WP MM RUTH 1980-09-16 15:00:00 TS 18.5018 101.960 main 0 0 _P____________ -1 18.5018 101.960 2 1005 0 0 1 TD 19 245
1980254N14112 1980 75 WP MM RUTH 1980-09-16 18:00:00 ET 18.0000 101.000 1006 tokyo main 0 0 _O____________ -1 18.0000 101.000 6 1006 0 0 0 15 244
1980254N14112 1980 75 WP MM RUTH 1980-09-16 21:00:00 ET 17.8739 100.577 main 0 0 _P____________ -1 17.8739 100.577 6 1006 0 0 5 270
1980254N14112 1980 75 WP MM RUTH 1980-09-17 00:00:00 ET 18.0000 100.500 1006 tokyo main 0 _O____________ -1 18.0000 100.500 6 1006 0 0 0 3 332

Digital Typhoon Data and Search

About IBTrACS Database

This database is a web-friendly format of International Best Track Archive for Climate Stewardship (IBTrACS), a global best track data archive curated by NOAA dating back to 1842.

Updated: 2021-12-01